Portada
METAR-TAF:

METAR-TAF

Aeropuertos :

Montevideo-Chippewa County Airport

Montevideo, Minnesota, Estados Unidos

latitud: 44-58N, longitud: 095-43W, altitud: 315 m

Observación

El informe se hizo hace 24 minutos, a las 13:35 UTC
Viento calma
Temperatura 8°C
Humedad 34%
Presión 1030 hPa
Visibilidad: 16.1 km
Cielo despejado

METAR: KMVE 111335Z AUTO 00000KT 10SM CLR 08/M07 A3041 RMK AO2

Hora: 08:59 (13:59 UTC)


TAF: falta

Observaciones y pronósticos meteorológicos de más de 4000 aeropuertos (mensajes METAR y TAF).

Los puntos amarillos y rojos representan las estaciones disponibles.

Ponga el ratón en el punto deseado para ver el nombre de la estación.

Haga clic para ver las observaciones y los pronósticos meteorológicos.

Para cambiar el mapa : haga clic en los botones verdes con una cruz de color negro para hacer un zoom, en el botón verde con un guión para alejar o en las flechas verdes para mapas adyacentes.


METAR-TAF: